Winchester, Texas
Current Conditions -  °F | °C
As of 9:50 AM on Sunday 21 Dec 2014 (Local Time) from K3T5 Reporting Station
Overcast Overcast  
Wind Chill: 54°   Ceiling: 1900
Heat Index: 54°   Visibility: 10mi
Dew Point: 49°   Wind: 5mph
Humidity: 84%   Direction: 170°S
Pressure: 30.11"   Gusts: NA
Location:  29.8569°N, 96.9311°W
Report Text: K3T5 211550Z AUTO 17004KT 10SM OVC019 12/10 A3011 RMK AO2 T01210095
Loading
Personal Weather Stations






























Interactive Weather Map New forecast layout! Learn more

10-Day Weather Forecast

Advertisements
Track Severe Weather on mobile